sensor_id;sensor_type;location;lat;lon;timestamp;noise_LAeq;noise_LA_min;noise_LA_max;noise_LA01;noise_LA95
69610;Laerm;56816;52.192;4.474;2023-05-15T00:00:04;40.50;36.81;44.57;;
69610;Laerm;56816;52.192;4.474;2023-05-15T00:00:15;42.22;37.71;49.35;;
69610;Laerm;56816;52.192;4.474;2023-05-15T00:00:26;40.25;36.32;46.67;;
69610;Laerm;56816;52.192;4.474;2023-05-15T00:00:36;40.31;35.06;47.19;;
69610;Laerm;56816;52.192;4.474;2023-05-15T00:00:48;37.35;34.95;40.13;;
69610;Laerm;56816;52.192;4.474;2023-05-15T00:00:58;37.97;34.28;41.76;;
69610;Laerm;56816;52.192;4.474;2023-05-15T00:01:09;37.81;35.54;41.77;;
69610;Laerm;56816;52.192;4.474;2023-05-15T00:01:19;39.68;35.93;45.59;;
69610;Laerm;56816;52.192;4.474;2023-05-15T00:01:29;39.88;35.91;47.67;;
69610;Laerm;56816;52.192;4.474;2023-05-15T00:01:40;39.50;35.71;48.07;;
69610;Laerm;56816;52.192;4.474;2023-05-15T00:01:51;36.90;35.02;42.90;;
69610;Laerm;56816;52.192;4.474;2023-05-15T00:02:01;36.25;34.63;39.30;;
69610;Laerm;56816;52.192;4.474;2023-05-15T00:02:11;38.92;35.55;43.63;;
69610;Laerm;56816;52.192;4.474;2023-05-15T00:02:22;44.75;41.23;47.76;;
69610;Laerm;56816;52.192;4.474;2023-05-15T00:02:32;45.05;40.84;50.12;;
69610;Laerm;56816;52.192;4.474;2023-05-15T00:02:45;46.49;36.12;52.70;;
69610;Laerm;56816;52.192;4.474;2023-05-15T00:02:55;37.77;35.52;40.10;;
69610;Laerm;56816;52.192;4.474;2023-05-15T00:03:06;36.27;34.27;38.51;;
69610;Laerm;56816;52.192;4.474;2023-05-15T00:03:16;36.04;34.20;37.79;;
69610;Laerm;56816;52.192;4.474;2023-05-15T00:03:27;35.93;33.84;38.41;;
69610;Laerm;56816;52.192;4.474;2023-05-15T00:03:37;35.88;33.75;37.82;;
69610;Laerm;56816;52.192;4.474;2023-05-15T00:03:47;38.86;35.48;43.59;;
69610;Laerm;56816;52.192;4.474;2023-05-15T00:04:00;36.45;33.73;41.29;;
69610;Laerm;56816;52.192;4.474;2023-05-15T00:04:11;35.25;33.25;37.63;;
69610;Laerm;56816;52.192;4.474;2023-05-15T00:04:21;36.03;33.96;38.42;;
69610;Laerm;56816;52.192;4.474;2023-05-15T00:04:32;39.97;34.93;44.13;;
69610;Laerm;56816;52.192;4.474;2023-05-15T00:04:42;39.30;35.77;43.57;;
69610;Laerm;56816;52.192;4.474;2023-05-15T00:04:52;40.89;34.79;45.52;;
69610;Laerm;56816;52.192;4.474;2023-05-15T00:05:03;38.45;34.95;44.84;;
69610;Laerm;56816;52.192;4.474;2023-05-15T00:05:13;38.85;35.66;43.74;;
69610;Laerm;56816;52.192;4.474;2023-05-15T00:05:24;39.87;35.71;48.84;;
69610;Laerm;56816;52.192;4.474;2023-05-15T00:05:34;39.12;35.63;45.99;;
69610;Laerm;56816;52.192;4.474;2023-05-15T00:05:44;39.31;35.29;45.59;;
69610;Laerm;56816;52.192;4.474;2023-05-15T00:05:54;38.73;36.27;41.70;;
69610;Laerm;56816;52.192;4.474;2023-05-15T00:06:05;40.45;35.56;47.12;;
69610;Laerm;56816;52.192;4.474;2023-05-15T00:06:16;37.60;34.86;40.27;;
69610;Laerm;56816;52.192;4.474;2023-05-15T00:06:26;36.33;33.97;38.99;;
69610;Laerm;56816;52.192;4.474;2023-05-15T00:06:37;37.94;34.09;45.59;;
69610;Laerm;56816;52.192;4.474;2023-05-15T00:06:47;38.73;35.52;42.09;;
69610;Laerm;56816;52.192;4.474;2023-05-15T00:06:57;39.94;36.23;44.84;;
69610;Laerm;56816;52.192;4.474;2023-05-15T00:07:08;40.20;36.29;45.12;;
69610;Laerm;56816;52.192;4.474;2023-05-15T00:07:18;38.46;35.30;42.51;;
69610;Laerm;56816;52.192;4.474;2023-05-15T00:07:28;36.12;33.43;41.45;;
69610;Laerm;56816;52.192;4.474;2023-05-15T00:07:39;34.72;32.75;36.22;;
69610;Laerm;56816;52.192;4.474;2023-05-15T00:07:49;35.03;33.57;36.80;;
69610;Laerm;56816;52.192;4.474;2023-05-15T00:08:00;36.82;33.80;43.59;;
69610;Laerm;56816;52.192;4.474;2023-05-15T00:08:10;36.02;33.29;40.28;;
69610;Laerm;56816;52.192;4.474;2023-05-15T00:08:20;36.29;34.02;40.56;;
69610;Laerm;56816;52.192;4.474;2023-05-15T00:08:30;39.00;34.22;48.82;;
69610;Laerm;56816;52.192;4.474;2023-05-15T00:08:41;35.23;32.62;37.83;;
69610;Laerm;56816;52.192;4.474;2023-05-15T00:08:51;34.30;32.07;37.52;;
69610;Laerm;56816;52.192;4.474;2023-05-15T00:09:01;33.99;32.05;35.82;;
69610;Laerm;56816;52.192;4.474;2023-05-15T00:09:13;34.34;32.44;36.63;;
69610;Laerm;56816;52.192;4.474;2023-05-15T00:09:23;35.83;32.52;40.05;;
69610;Laerm;56816;52.192;4.474;2023-05-15T00:09:33;37.04;34.17;39.67;;
69610;Laerm;56816;52.192;4.474;2023-05-15T00:09:43;39.84;34.87;44.71;;
69610;Laerm;56816;52.192;4.474;2023-05-15T00:09:54;41.63;37.08;46.67;;
69610;Laerm;56816;52.192;4.474;2023-05-15T00:10:05;42.31;38.68;46.72;;
69610;Laerm;56816;52.192;4.474;2023-05-15T00:10:15;41.49;37.11;45.57;;
69610;Laerm;56816;52.192;4.474;2023-05-15T00:10:25;37.12;34.77;41.09;;
69610;Laerm;56816;52.192;4.474;2023-05-15T00:10:35;36.38;33.80;39.56;;
69610;Laerm;56816;52.192;4.474;2023-05-15T00:10:46;37.18;33.46;41.13;;
69610;Laerm;56816;52.192;4.474;2023-05-15T00:10:56;40.52;34.23;54.81;;
69610;Laerm;56816;52.192;4.474;2023-05-15T00:11:06;40.84;33.71;55.60;;
69610;Laerm;56816;52.192;4.474;2023-05-15T00:11:16;35.79;32.85;38.18;;
69610;Laerm;56816;52.192;4.474;2023-05-15T00:11:27;36.17;33.61;39.73;;
69610;Laerm;56816;52.192;4.474;2023-05-15T00:11:37;38.80;34.72;43.93;;
69610;Laerm;56816;52.192;4.474;2023-05-15T00:11:47;37.97;34.58;41.23;;
69610;Laerm;56816;52.192;4.474;2023-05-15T00:11:57;36.76;33.74;39.53;;
69610;Laerm;56816;52.192;4.474;2023-05-15T00:12:08;35.89;33.26;39.61;;
69610;Laerm;56816;52.192;4.474;2023-05-15T00:12:18;36.38;33.83;39.93;;
69610;Laerm;56816;52.192;4.474;2023-05-15T00:12:28;36.73;34.15;39.76;;
69610;Laerm;56816;52.192;4.474;2023-05-15T00:12:39;37.08;34.77;41.10;;
69610;Laerm;56816;52.192;4.474;2023-05-15T00:12:49;36.86;34.18;39.87;;
69610;Laerm;56816;52.192;4.474;2023-05-15T00:12:59;40.00;36.55;44.69;;
69610;Laerm;56816;52.192;4.474;2023-05-15T00:13:09;39.61;36.34;43.43;;
69610;Laerm;56816;52.192;4.474;2023-05-15T00:13:20;39.59;36.44;42.76;;
69610;Laerm;56816;52.192;4.474;2023-05-15T00:13:30;39.44;36.31;44.00;;
69610;Laerm;56816;52.192;4.474;2023-05-15T00:13:40;51.84;40.07;65.99;;
69610;Laerm;56816;52.192;4.474;2023-05-15T00:13:50;36.51;33.45;41.48;;
69610;Laerm;56816;52.192;4.474;2023-05-15T00:14:01;39.81;34.15;44.85;;
69610;Laerm;56816;52.192;4.474;2023-05-15T00:14:11;37.33;34.73;39.79;;
69610;Laerm;56816;52.192;4.474;2023-05-15T00:14:21;35.85;33.54;38.77;;
69610;Laerm;56816;52.192;4.474;2023-05-15T00:14:32;35.84;33.20;39.20;;
69610;Laerm;56816;52.192;4.474;2023-05-15T00:14:42;35.88;33.79;39.66;;
69610;Laerm;56816;52.192;4.474;2023-05-15T00:14:52;40.63;34.75;47.89;;
69610;Laerm;56816;52.192;4.474;2023-05-15T00:15:02;42.66;37.12;48.30;;
69610;Laerm;56816;52.192;4.474;2023-05-15T00:15:13;40.84;36.31;45.02;;
69610;Laerm;56816;52.192;4.474;2023-05-15T00:15:23;40.51;37.18;45.26;;
69610;Laerm;56816;52.192;4.474;2023-05-15T00:15:33;38.55;35.74;42.72;;
69610;Laerm;56816;52.192;4.474;2023-05-15T00:15:43;37.64;35.21;40.47;;
69610;Laerm;56816;52.192;4.474;2023-05-15T00:15:54;37.22;34.46;40.94;;
69610;Laerm;56816;52.192;4.474;2023-05-15T00:16:05;36.39;34.32;39.70;;
69610;Laerm;56816;52.192;4.474;2023-05-15T00:16:16;37.54;35.08;41.77;;
69610;Laerm;56816;52.192;4.474;2023-05-15T00:16:26;37.73;34.96;41.06;;
69610;Laerm;56816;52.192;4.474;2023-05-15T00:16:36;37.46;34.88;41.46;;
69610;Laerm;56816;52.192;4.474;2023-05-15T00:16:46;38.97;34.93;43.52;;
69610;Laerm;56816;52.192;4.474;2023-05-15T00:16:57;39.49;35.88;44.61;;
69610;Laerm;56816;52.192;4.474;2023-05-15T00:17:07;38.18;35.01;43.40;;
69610;Laerm;56816;52.192;4.474;2023-05-15T00:17:17;35.88;33.43;39.12;;
69610;Laerm;56816;52.192;4.474;2023-05-15T00:17:27;34.97;32.37;38.17;;
69610;Laerm;56816;52.192;4.474;2023-05-15T00:17:38;37.53;34.51;44.56;;
69610;Laerm;56816;52.192;4.474;2023-05-15T00:17:48;35.29;33.28;38.81;;
69610;Laerm;56816;52.192;4.474;2023-05-15T00:17:58;35.85;33.42;38.75;;
69610;Laerm;56816;52.192;4.474;2023-05-15T00:18:08;34.95;32.98;37.30;;
69610;Laerm;56816;52.192;4.474;2023-05-15T00:18:19;35.69;33.05;38.47;;
69610;Laerm;56816;52.192;4.474;2023-05-15T00:18:29;37.89;34.07;43.59;;
69610;Laerm;56816;52.192;4.474;2023-05-15T00:18:39;38.47;35.30;42.00;;
69610;Laerm;56816;52.192;4.474;2023-05-15T00:18:50;41.80;36.45;46.46;;
69610;Laerm;56816;52.192;4.474;2023-05-15T00:19:00;42.03;36.89;46.73;;
69610;Laerm;56816;52.192;4.474;2023-05-15T00:19:10;41.32;35.34;47.52;;
69610;Laerm;56816;52.192;4.474;2023-05-15T00:19:21;38.94;34.59;44.15;;
69610;Laerm;56816;52.192;4.474;2023-05-15T00:19:31;37.24;34.03;41.38;;
69610;Laerm;56816;52.192;4.474;2023-05-15T00:19:41;39.63;36.66;43.41;;
69610;Laerm;56816;52.192;4.474;2023-05-15T00:19:51;39.45;36.25;45.26;;
69610;Laerm;56816;52.192;4.474;2023-05-15T00:20:06;41.19;37.16;47.70;;
69610;Laerm;56816;52.192;4.474;2023-05-15T00:20:19;39.32;36.14;45.57;;
69610;Laerm;56816;52.192;4.474;2023-05-15T00:20:29;35.95;33.33;39.81;;
69610;Laerm;56816;52.192;4.474;2023-05-15T00:20:40;34.55;32.06;37.77;;
69610;Laerm;56816;52.192;4.474;2023-05-15T00:20:50;33.94;31.61;36.23;;
69610;Laerm;56816;52.192;4.474;2023-05-15T00:21:02;35.40;32.24;38.81;;
69610;Laerm;56816;52.192;4.474;2023-05-15T00:21:12;35.83;33.45;38.71;;
69610;Laerm;56816;52.192;4.474;2023-05-15T00:21:22;36.19;33.80;38.82;;
69610;Laerm;56816;52.192;4.474;2023-05-15T00:21:33;35.67;33.66;38.21;;
69610;Laerm;56816;52.192;4.474;2023-05-15T00:21:43;36.22;33.87;39.37;;
69610;Laerm;56816;52.192;4.474;2023-05-15T00:21:53;38.89;34.80;43.45;;
69610;Laerm;56816;52.192;4.474;2023-05-15T00:22:04;36.65;33.89;39.93;;
69610;Laerm;56816;52.192;4.474;2023-05-15T00:22:14;39.78;35.98;44.53;;
69610;Laerm;56816;52.192;4.474;2023-05-15T00:22:25;39.09;35.23;43.76;;
69610;Laerm;56816;52.192;4.474;2023-05-15T00:22:35;35.66;33.55;39.60;;
69610;Laerm;56816;52.192;4.474;2023-05-15T00:22:45;37.81;34.04;51.65;;
69610;Laerm;56816;52.192;4.474;2023-05-15T00:22:55;40.01;36.31;44.26;;
69610;Laerm;56816;52.192;4.474;2023-05-15T00:23:07;43.09;35.32;47.48;;
69610;Laerm;56816;52.192;4.474;2023-05-15T00:23:17;43.84;39.90;48.83;;
69610;Laerm;56816;52.192;4.474;2023-05-15T00:23:27;40.26;36.51;44.10;;
69610;Laerm;56816;52.192;4.474;2023-05-15T00:23:38;38.95;35.44;42.79;;
69610;Laerm;56816;52.192;4.474;2023-05-15T00:23:48;38.16;34.96;44.96;;
69610;Laerm;56816;52.192;4.474;2023-05-15T00:23:58;37.65;34.30;41.42;;
69610;Laerm;56816;52.192;4.474;2023-05-15T00:24:09;39.07;35.07;42.22;;
69610;Laerm;56816;52.192;4.474;2023-05-15T00:24:20;42.21;37.09;47.70;;
69610;Laerm;56816;52.192;4.474;2023-05-15T00:24:30;41.03;36.86;46.44;;
69610;Laerm;56816;52.192;4.474;2023-05-15T00:24:40;38.60;34.99;45.12;;
69610;Laerm;56816;52.192;4.474;2023-05-15T00:24:51;36.56;34.19;39.23;;
69610;Laerm;56816;52.192;4.474;2023-05-15T00:25:01;35.87;33.53;38.31;;
69610;Laerm;56816;52.192;4.474;2023-05-15T00:25:12;35.56;32.77;37.54;;
69610;Laerm;56816;52.192;4.474;2023-05-15T00:25:22;36.15;33.52;38.54;;
69610;Laerm;56816;52.192;4.474;2023-05-15T00:25:32;36.25;34.11;38.40;;
69610;Laerm;56816;52.192;4.474;2023-05-15T00:25:42;38.12;34.89;43.12;;
69610;Laerm;56816;52.192;4.474;2023-05-15T00:25:53;37.26;34.63;40.17;;
69610;Laerm;56816;52.192;4.474;2023-05-15T00:26:03;36.53;34.30;38.95;;
69610;Laerm;56816;52.192;4.474;2023-05-15T00:26:13;36.63;34.57;38.82;;
69610;Laerm;56816;52.192;4.474;2023-05-15T00:26:24;37.02;34.73;40.29;;
69610;Laerm;56816;52.192;4.474;2023-05-15T00:26:35;37.19;34.39;40.65;;
69610;Laerm;56816;52.192;4.474;2023-05-15T00:26:45;39.12;35.42;45.44;;
69610;Laerm;56816;52.192;4.474;2023-05-15T00:26:56;40.65;34.84;46.03;;
69610;Laerm;56816;52.192;4.474;2023-05-15T00:27:06;38.96;35.84;47.07;;
69610;Laerm;56816;52.192;4.474;2023-05-15T00:27:16;37.57;34.80;44.02;;
69610;Laerm;56816;52.192;4.474;2023-05-15T00:27:27;38.85;35.24;44.10;;
69610;Laerm;56816;52.192;4.474;2023-05-15T00:27:37;38.11;34.92;44.23;;
69610;Laerm;56816;52.192;4.474;2023-05-15T00:27:47;39.53;35.40;43.99;;
69610;Laerm;56816;52.192;4.474;2023-05-15T00:27:57;38.18;34.22;43.48;;
69610;Laerm;56816;52.192;4.474;2023-05-15T00:28:07;36.45;33.86;41.14;;
69610;Laerm;56816;52.192;4.474;2023-05-15T00:28:18;35.19;32.89;38.18;;
69610;Laerm;56816;52.192;4.474;2023-05-15T00:28:28;34.62;33.13;36.56;;
69610;Laerm;56816;52.192;4.474;2023-05-15T00:28:38;34.96;33.11;38.52;;
69610;Laerm;56816;52.192;4.474;2023-05-15T00:28:49;36.39;33.27;40.28;;
69610;Laerm;56816;52.192;4.474;2023-05-15T00:28:59;40.44;35.41;49.46;;
69610;Laerm;56816;52.192;4.474;2023-05-15T00:29:10;38.02;35.21;41.90;;
69610;Laerm;56816;52.192;4.474;2023-05-15T00:29:20;38.15;34.47;46.00;;
69610;Laerm;56816;52.192;4.474;2023-05-15T00:29:30;35.23;33.13;39.10;;
69610;Laerm;56816;52.192;4.474;2023-05-15T00:29:40;35.35;32.89;37.27;;
69610;Laerm;56816;52.192;4.474;2023-05-15T00:29:51;36.00;33.70;39.52;;
69610;Laerm;56816;52.192;4.474;2023-05-15T00:30:01;36.83;34.08;39.97;;
69610;Laerm;56816;52.192;4.474;2023-05-15T00:30:12;40.26;36.89;44.11;;
69610;Laerm;56816;52.192;4.474;2023-05-15T00:30:22;40.48;37.17;47.48;;
69610;Laerm;56816;52.192;4.474;2023-05-15T00:30:32;43.23;36.89;48.52;;
69610;Laerm;56816;52.192;4.474;2023-05-15T00:30:43;42.64;36.02;49.00;;
69610;Laerm;56816;52.192;4.474;2023-05-15T00:30:54;40.38;36.65;44.33;;
69610;Laerm;56816;52.192;4.474;2023-05-15T00:31:04;38.98;36.25;42.17;;
69610;Laerm;56816;52.192;4.474;2023-05-15T00:31:15;37.55;34.31;41.41;;
69610;Laerm;56816;52.192;4.474;2023-05-15T00:31:25;36.92;34.20;40.13;;
69610;Laerm;56816;52.192;4.474;2023-05-15T00:31:36;38.27;35.01;45.73;;
69610;Laerm;56816;52.192;4.474;2023-05-15T00:31:46;37.82;35.07;44.10;;
69610;Laerm;56816;52.192;4.474;2023-05-15T00:31:56;37.90;35.10;42.68;;
69610;Laerm;56816;52.192;4.474;2023-05-15T00:32:06;39.31;35.59;42.54;;
69610;Laerm;56816;52.192;4.474;2023-05-15T00:32:17;39.39;35.84;42.52;;
69610;Laerm;56816;52.192;4.474;2023-05-15T00:32:27;39.61;36.21;44.12;;
69610;Laerm;56816;52.192;4.474;2023-05-15T00:32:37;39.17;37.02;42.09;;
69610;Laerm;56816;52.192;4.474;2023-05-15T00:32:48;39.99;36.39;43.82;;
69610;Laerm;56816;52.192;4.474;2023-05-15T00:32:58;39.36;36.28;44.88;;
69610;Laerm;56816;52.192;4.474;2023-05-15T00:33:08;38.27;35.49;41.14;;
69610;Laerm;56816;52.192;4.474;2023-05-15T00:33:19;37.08;34.96;43.04;;
69610;Laerm;56816;52.192;4.474;2023-05-15T00:33:29;39.66;36.82;44.87;;
69610;Laerm;56816;52.192;4.474;2023-05-15T00:33:40;42.18;37.02;50.69;;
69610;Laerm;56816;52.192;4.474;2023-05-15T00:33:50;40.22;37.17;47.21;;
69610;Laerm;56816;52.192;4.474;2023-05-15T00:34:00;38.99;34.99;43.78;;
69610;Laerm;56816;52.192;4.474;2023-05-15T00:34:11;37.29;34.76;41.10;;
69610;Laerm;56816;52.192;4.474;2023-05-15T00:34:21;36.83;34.48;40.96;;
69610;Laerm;56816;52.192;4.474;2023-05-15T00:34:32;40.24;36.82;43.61;;
69610;Laerm;56816;52.192;4.474;2023-05-15T00:34:42;41.42;38.57;44.44;;
69610;Laerm;56816;52.192;4.474;2023-05-15T00:34:52;41.23;38.63;44.96;;
69610;Laerm;56816;52.192;4.474;2023-05-15T00:35:02;42.59;38.53;49.77;;
69610;Laerm;56816;52.192;4.474;2023-05-15T00:35:14;41.42;36.82;45.94;;
69610;Laerm;56816;52.192;4.474;2023-05-15T00:35:24;39.23;37.06;41.84;;
69610;Laerm;56816;52.192;4.474;2023-05-15T00:35:34;41.29;36.45;50.75;;
69610;Laerm;56816;52.192;4.474;2023-05-15T00:35:45;46.42;37.14;55.18;;
69610;Laerm;56816;52.192;4.474;2023-05-15T00:35:55;40.35;37.63;46.43;;
69610;Laerm;56816;52.192;4.474;2023-05-15T00:36:05;38.29;36.19;40.90;;
69610;Laerm;56816;52.192;4.474;2023-05-15T00:36:16;41.29;37.41;45.01;;
69610;Laerm;56816;52.192;4.474;2023-05-15T00:36:26;46.63;40.01;53.79;;
69610;Laerm;56816;52.192;4.474;2023-05-15T00:36:36;44.91;40.90;49.46;;
69610;Laerm;56816;52.192;4.474;2023-05-15T00:36:47;46.89;43.39;49.95;;
69610;Laerm;56816;52.192;4.474;2023-05-15T00:36:58;47.40;44.08;50.14;;
69610;Laerm;56816;52.192;4.474;2023-05-15T00:37:08;45.31;42.02;47.80;;
69610;Laerm;56816;52.192;4.474;2023-05-15T00:37:18;42.26;38.36;44.79;;
69610;Laerm;56816;52.192;4.474;2023-05-15T00:37:28;39.38;36.92;43.56;;
69610;Laerm;56816;52.192;4.474;2023-05-15T00:37:39;38.64;35.91;43.03;;
69610;Laerm;56816;52.192;4.474;2023-05-15T00:37:49;39.63;36.18;44.86;;
69610;Laerm;56816;52.192;4.474;2023-05-15T00:37:59;38.87;35.81;43.36;;
69610;Laerm;56816;52.192;4.474;2023-05-15T00:38:10;40.46;36.41;47.54;;
69610;Laerm;56816;52.192;4.474;2023-05-15T00:38:20;38.42;35.20;41.61;;
69610;Laerm;56816;52.192;4.474;2023-05-15T00:38:31;38.57;35.57;45.39;;
69610;Laerm;56816;52.192;4.474;2023-05-15T00:38:42;36.58;34.86;38.75;;
69610;Laerm;56816;52.192;4.474;2023-05-15T00:38:53;36.70;34.14;41.41;;
69610;Laerm;56816;52.192;4.474;2023-05-15T00:39:03;35.98;33.98;39.27;;
69610;Laerm;56816;52.192;4.474;2023-05-15T00:39:13;36.43;33.92;39.24;;
69610;Laerm;56816;52.192;4.474;2023-05-15T00:39:24;39.86;35.74;44.87;;
69610;Laerm;56816;52.192;4.474;2023-05-15T00:39:34;40.50;36.81;43.86;;
69610;Laerm;56816;52.192;4.474;2023-05-15T00:39:45;41.59;37.23;45.56;;
69610;Laerm;56816;52.192;4.474;2023-05-15T00:39:55;40.09;36.39;44.69;;
69610;Laerm;56816;52.192;4.474;2023-05-15T00:40:06;40.54;37.68;44.46;;
69610;Laerm;56816;52.192;4.474;2023-05-15T00:40:20;41.50;37.53;47.15;;
69610;Laerm;56816;52.192;4.474;2023-05-15T00:40:31;43.13;39.02;49.17;;
69610;Laerm;56816;52.192;4.474;2023-05-15T00:40:42;41.05;37.59;47.85;;
69610;Laerm;56816;52.192;4.474;2023-05-15T00:40:53;40.21;37.15;43.34;;
69610;Laerm;56816;52.192;4.474;2023-05-15T00:41:05;41.80;38.49;46.91;;
69610;Laerm;56816;52.192;4.474;2023-05-15T00:41:16;41.93;37.29;47.95;;
69610;Laerm;56816;52.192;4.474;2023-05-15T00:41:27;39.43;36.47;44.35;;
69610;Laerm;56816;52.192;4.474;2023-05-15T00:41:41;37.25;34.61;41.61;;
69610;Laerm;56816;52.192;4.474;2023-05-15T00:41:52;36.71;33.73;39.67;;
69610;Laerm;56816;52.192;4.474;2023-05-15T00:42:04;35.88;34.14;38.73;;
69610;Laerm;56816;52.192;4.474;2023-05-15T00:42:15;36.35;33.63;39.96;;
69610;Laerm;56816;52.192;4.474;2023-05-15T00:42:26;36.89;33.68;41.81;;
69610;Laerm;56816;52.192;4.474;2023-05-15T00:42:37;36.93;34.45;39.04;;
69610;Laerm;56816;52.192;4.474;2023-05-15T00:42:47;37.16;35.11;39.81;;
69610;Laerm;56816;52.192;4.474;2023-05-15T00:42:58;39.54;36.05;47.18;;
69610;Laerm;56816;52.192;4.474;2023-05-15T00:43:09;39.53;35.21;44.54;;
69610;Laerm;56816;52.192;4.474;2023-05-15T00:43:20;39.90;36.72;44.45;;
69610;Laerm;56816;52.192;4.474;2023-05-15T00:43:30;38.88;35.33;42.58;;
69610;Laerm;56816;52.192;4.474;2023-05-15T00:43:41;38.58;35.39;44.34;;
69610;Laerm;56816;52.192;4.474;2023-05-15T00:43:52;37.84;35.68;41.04;;
69610;Laerm;56816;52.192;4.474;2023-05-15T00:44:04;39.65;36.67;45.39;;
69610;Laerm;56816;52.192;4.474;2023-05-15T00:44:15;41.21;37.60;46.60;;
69610;Laerm;56816;52.192;4.474;2023-05-15T00:44:26;41.57;37.21;45.35;;
69610;Laerm;56816;52.192;4.474;2023-05-15T00:44:36;37.65;35.53;41.83;;
69610;Laerm;56816;52.192;4.474;2023-05-15T00:44:47;36.55;34.45;40.33;;
69610;Laerm;56816;52.192;4.474;2023-05-15T00:44:57;37.24;34.84;39.62;;
69610;Laerm;56816;52.192;4.474;2023-05-15T00:45:09;39.93;36.43;43.85;;
69610;Laerm;56816;52.192;4.474;2023-05-15T00:45:20;38.87;35.36;43.30;;
69610;Laerm;56816;52.192;4.474;2023-05-15T00:45:31;36.64;33.58;39.74;;
69610;Laerm;56816;52.192;4.474;2023-05-15T00:45:41;35.23;33.30;37.78;;
69610;Laerm;56816;52.192;4.474;2023-05-15T00:45:52;38.37;35.19;44.80;;
69610;Laerm;56816;52.192;4.474;2023-05-15T00:46:02;41.11;36.63;46.52;;
69610;Laerm;56816;52.192;4.474;2023-05-15T00:46:13;39.84;36.22;44.95;;
69610;Laerm;56816;52.192;4.474;2023-05-15T00:46:24;38.19;35.56;44.03;;
69610;Laerm;56816;52.192;4.474;2023-05-15T00:46:35;38.60;35.53;44.92;;
69610;Laerm;56816;52.192;4.474;2023-05-15T00:46:46;38.03;35.35;43.77;;
69610;Laerm;56816;52.192;4.474;2023-05-15T00:46:58;38.81;35.88;44.11;;
69610;Laerm;56816;52.192;4.474;2023-05-15T00:47:08;38.28;35.77;42.82;;
69610;Laerm;56816;52.192;4.474;2023-05-15T00:47:22;39.24;35.78;42.40;;
69610;Laerm;56816;52.192;4.474;2023-05-15T00:47:32;41.51;37.95;47.82;;
69610;Laerm;56816;52.192;4.474;2023-05-15T00:47:43;39.60;35.93;45.54;;
69610;Laerm;56816;52.192;4.474;2023-05-15T00:47:54;39.79;36.82;43.71;;
69610;Laerm;56816;52.192;4.474;2023-05-15T00:48:07;39.98;36.54;46.21;;
69610;Laerm;56816;52.192;4.474;2023-05-15T00:48:18;39.52;35.87;45.40;;
69610;Laerm;56816;52.192;4.474;2023-05-15T00:48:31;38.18;34.12;44.26;;
69610;Laerm;56816;52.192;4.474;2023-05-15T00:48:42;36.63;34.05;40.70;;
69610;Laerm;56816;52.192;4.474;2023-05-15T00:48:52;36.76;34.64;39.02;;
69610;Laerm;56816;52.192;4.474;2023-05-15T00:49:03;38.44;35.53;41.08;;
69610;Laerm;56816;52.192;4.474;2023-05-15T00:49:15;38.54;35.40;42.18;;
69610;Laerm;56816;52.192;4.474;2023-05-15T00:49:28;40.29;36.25;44.55;;
69610;Laerm;56816;52.192;4.474;2023-05-15T00:49:38;38.44;35.54;42.81;;
69610;Laerm;56816;52.192;4.474;2023-05-15T00:49:49;39.73;35.97;44.93;;
69610;Laerm;56816;52.192;4.474;2023-05-15T00:50:00;40.54;37.86;43.50;;
69610;Laerm;56816;52.192;4.474;2023-05-15T00:50:12;42.11;38.53;47.06;;
69610;Laerm;56816;52.192;4.474;2023-05-15T00:50:22;40.97;37.11;46.68;;
69610;Laerm;56816;52.192;4.474;2023-05-15T00:50:33;38.15;35.21;40.57;;
69610;Laerm;56816;52.192;4.474;2023-05-15T00:50:43;38.18;35.95;42.12;;
69610;Laerm;56816;52.192;4.474;2023-05-15T00:50:54;39.55;36.10;44.47;;
69610;Laerm;56816;52.192;4.474;2023-05-15T00:51:05;39.45;36.60;43.94;;
69610;Laerm;56816;52.192;4.474;2023-05-15T00:51:15;40.81;38.23;42.88;;
69610;Laerm;56816;52.192;4.474;2023-05-15T00:51:26;40.87;37.81;44.97;;
69610;Laerm;56816;52.192;4.474;2023-05-15T00:51:36;40.78;37.48;44.87;;
69610;Laerm;56816;52.192;4.474;2023-05-15T00:51:46;39.73;36.95;41.95;;
69610;Laerm;56816;52.192;4.474;2023-05-15T00:51:56;39.75;36.73;42.61;;
69610;Laerm;56816;52.192;4.474;2023-05-15T00:52:10;41.46;36.56;45.19;;
69610;Laerm;56816;52.192;4.474;2023-05-15T00:52:21;38.96;36.62;42.05;;
69610;Laerm;56816;52.192;4.474;2023-05-15T00:52:31;40.57;37.01;45.59;;
69610;Laerm;56816;52.192;4.474;2023-05-15T00:52:42;37.82;35.11;40.14;;
69610;Laerm;56816;52.192;4.474;2023-05-15T00:52:52;37.22;34.95;39.78;;
69610;Laerm;56816;52.192;4.474;2023-05-15T00:53:04;39.99;35.81;46.71;;
69610;Laerm;56816;52.192;4.474;2023-05-15T00:53:15;40.48;36.69;46.16;;
69610;Laerm;56816;52.192;4.474;2023-05-15T00:53:27;42.22;38.35;46.01;;
69610;Laerm;56816;52.192;4.474;2023-05-15T00:53:38;42.70;38.85;46.77;;
69610;Laerm;56816;52.192;4.474;2023-05-15T00:53:49;44.91;40.88;49.49;;
69610;Laerm;56816;52.192;4.474;2023-05-15T00:54:01;44.05;39.52;49.80;;
69610;Laerm;56816;52.192;4.474;2023-05-15T00:54:12;40.52;37.22;44.85;;
69610;Laerm;56816;52.192;4.474;2023-05-15T00:54:23;40.86;36.85;48.04;;
69610;Laerm;56816;52.192;4.474;2023-05-15T00:54:33;38.10;36.01;40.44;;
69610;Laerm;56816;52.192;4.474;2023-05-15T00:54:44;37.94;35.86;40.42;;
69610;Laerm;56816;52.192;4.474;2023-05-15T00:54:54;38.83;35.92;43.23;;
69610;Laerm;56816;52.192;4.474;2023-05-15T00:55:04;37.45;35.50;39.64;;
69610;Laerm;56816;52.192;4.474;2023-05-15T00:55:15;37.88;35.57;39.92;;
69610;Laerm;56816;52.192;4.474;2023-05-15T00:55:25;38.59;35.19;45.53;;
69610;Laerm;56816;52.192;4.474;2023-05-15T00:55:37;37.95;35.45;44.42;;
69610;Laerm;56816;52.192;4.474;2023-05-15T00:55:48;46.06;35.43;60.62;;
69610;Laerm;56816;52.192;4.474;2023-05-15T00:55:59;36.99;34.99;39.80;;
69610;Laerm;56816;52.192;4.474;2023-05-15T00:56:10;38.15;35.67;42.88;;
69610;Laerm;56816;52.192;4.474;2023-05-15T00:56:20;36.58;34.46;38.90;;
69610;Laerm;56816;52.192;4.474;2023-05-15T00:56:31;36.08;34.15;38.56;;
69610;Laerm;56816;52.192;4.474;2023-05-15T00:56:42;35.62;33.42;37.50;;
69610;Laerm;56816;52.192;4.474;2023-05-15T00:56:56;36.24;34.01;38.67;;
69610;Laerm;56816;52.192;4.474;2023-05-15T00:57:08;37.32;34.80;42.21;;
69610;Laerm;56816;52.192;4.474;2023-05-15T00:57:18;37.71;35.48;40.33;;
69610;Laerm;56816;52.192;4.474;2023-05-15T00:57:29;42.48;36.22;49.90;;
69610;Laerm;56816;52.192;4.474;2023-05-15T00:57:40;40.81;36.95;45.50;;
69610;Laerm;56816;52.192;4.474;2023-05-15T00:57:51;38.40;35.27;43.93;;
69610;Laerm;56816;52.192;4.474;2023-05-15T00:58:02;40.16;35.90;44.70;;
69610;Laerm;56816;52.192;4.474;2023-05-15T00:58:13;39.52;36.66;42.84;;
69610;Laerm;56816;52.192;4.474;2023-05-15T00:58:25;39.00;36.40;42.33;;
69610;Laerm;56816;52.192;4.474;2023-05-15T00:58:36;40.46;37.67;43.60;;
69610;Laerm;56816;52.192;4.474;2023-05-15T00:58:47;43.41;37.79;51.86;;
69610;Laerm;56816;52.192;4.474;2023-05-15T00:58:58;43.81;39.30;52.06;;
69610;Laerm;56816;52.192;4.474;2023-05-15T00:59:08;42.63;39.62;47.99;;
69610;Laerm;56816;52.192;4.474;2023-05-15T00:59:19;41.91;37.01;50.21;;
69610;Laerm;56816;52.192;4.474;2023-05-15T00:59:30;38.02;36.00;41.40;;